sensor_id;sensor_type;location;lat;lon;timestamp;pressure;altitude;pressure_sealevel;temperature;humidity
29433;BME280;16405;53.964;13.448;2024-02-21T00:02:02;101435.28;;;6.82;100.00
29433;BME280;16405;53.964;13.448;2024-02-21T00:04:43;101426.69;;;6.76;100.00
29433;BME280;16405;53.964;13.448;2024-02-21T00:07:12;101424.00;;;6.80;100.00
29433;BME280;16405;53.964;13.448;2024-02-21T00:10:02;101421.34;;;6.83;100.00
29433;BME280;16405;53.964;13.448;2024-02-21T00:12:30;101416.97;;;6.82;100.00
29433;BME280;16405;53.964;13.448;2024-02-21T00:14:56;101418.66;;;6.84;100.00
29433;BME280;16405;53.964;13.448;2024-02-21T00:17:22;101405.63;;;6.83;100.00
29433;BME280;16405;53.964;13.448;2024-02-21T00:19:55;101403.84;;;6.85;100.00
29433;BME280;16405;53.964;13.448;2024-02-21T00:22:21;101401.25;;;6.82;100.00
29433;BME280;16405;53.964;13.448;2024-02-21T00:24:47;101396.00;;;6.83;100.00
29433;BME280;16405;53.964;13.448;2024-02-21T00:27:13;101395.88;;;6.89;100.00
29433;BME280;16405;53.964;13.448;2024-02-21T00:29:47;101399.34;;;6.91;100.00
29433;BME280;16405;53.964;13.448;2024-02-21T00:32:13;101399.34;;;6.91;100.00
29433;BME280;16405;53.964;13.448;2024-02-21T00:34:39;101385.34;;;6.92;100.00
29433;BME280;16405;53.964;13.448;2024-02-21T00:37:04;101390.44;;;6.98;100.00
29433;BME280;16405;53.964;13.448;2024-02-21T00:39:39;101377.38;;;6.97;100.00
29433;BME280;16405;53.964;13.448;2024-02-21T00:42:05;101375.63;;;6.97;100.00
29433;BME280;16405;53.964;13.448;2024-02-21T00:44:32;101371.28;;;6.96;100.00
29433;BME280;16405;53.964;13.448;2024-02-21T00:47:06;101363.47;;;6.95;100.00
29433;BME280;16405;53.964;13.448;2024-02-21T00:49:31;101368.66;;;6.96;100.00
29433;BME280;16405;53.964;13.448;2024-02-21T00:51:58;101359.16;;;6.92;100.00
29433;BME280;16405;53.964;13.448;2024-02-21T00:54:24;101356.56;;;6.91;100.00
29433;BME280;16405;53.964;13.448;2024-02-21T00:56:57;101350.50;;;6.89;100.00
29433;BME280;16405;53.964;13.448;2024-02-21T00:59:22;101344.44;;;6.87;100.00
29433;BME280;16405;53.964;13.448;2024-02-21T01:01:48;101341.00;;;6.85;100.00
29433;BME280;16405;53.964;13.448;2024-02-21T01:04:14;101330.66;;;6.78;100.00
29433;BME280;16405;53.964;13.448;2024-02-21T01:06:40;101334.13;;;6.81;100.00
29433;BME280;16405;53.964;13.448;2024-02-21T01:09:11;101329.75;;;6.80;100.00
29433;BME280;16405;53.964;13.448;2024-02-21T01:11:37;101318.41;;;6.81;100.00
29433;BME280;16405;53.964;13.448;2024-02-21T01:14:03;101318.41;;;6.81;100.00
29433;BME280;16405;53.964;13.448;2024-02-21T01:16:29;101313.22;;;6.77;100.00
29433;BME280;16405;53.964;13.448;2024-02-21T01:18:54;101304.63;;;6.72;100.00
29433;BME280;16405;53.964;13.448;2024-02-21T01:21:21;101302.84;;;6.74;100.00
29433;BME280;16405;53.964;13.448;2024-02-21T01:23:55;101304.63;;;6.72;100.00
29433;BME280;16405;53.964;13.448;2024-02-21T01:26:21;101293.31;;;6.70;100.00
29433;BME280;16405;53.964;13.448;2024-02-21T01:28:47;101293.31;;;6.72;100.00
29433;BME280;16405;53.964;13.448;2024-02-21T01:31:20;101290.63;;;6.73;100.00
29433;BME280;16405;53.964;13.448;2024-02-21T01:33:46;101287.19;;;6.71;100.00
29433;BME280;16405;53.964;13.448;2024-02-21T01:36:12;101286.31;;;6.71;100.00
29433;BME280;16405;53.964;13.448;2024-02-21T01:38:38;101282.03;;;6.68;100.00
29433;BME280;16405;53.964;13.448;2024-02-21T01:41:04;101273.38;;;6.65;100.00
29433;BME280;16405;53.964;13.448;2024-02-21T01:43:35;101264.63;;;6.66;100.00
29433;BME280;16405;53.964;13.448;2024-02-21T01:46:01;101262.88;;;6.66;100.00
29433;BME280;16405;53.964;13.448;2024-02-21T01:48:27;101266.31;;;6.68;100.00
29433;BME280;16405;53.964;13.448;2024-02-21T01:50:55;101257.63;;;6.66;100.00
29433;BME280;16405;53.964;13.448;2024-02-21T01:53:35;101253.25;;;6.67;100.00
29433;BME280;16405;53.964;13.448;2024-02-21T01:56:13;101248.09;;;6.64;100.00
29433;BME280;16405;53.964;13.448;2024-02-21T01:58:40;101249.91;;;6.60;100.00
29433;BME280;16405;53.964;13.448;2024-02-21T02:01:17;101246.38;;;6.63;100.00
29433;BME280;16405;53.964;13.448;2024-02-21T02:03:51;101236.63;;;6.69;100.00
29433;BME280;16405;53.964;13.448;2024-02-21T02:06:18;101236.78;;;6.63;100.00
29433;BME280;16405;53.964;13.448;2024-02-21T02:08:44;101234.19;;;6.62;100.00
29433;BME280;16405;53.964;13.448;2024-02-21T02:11:10;101223.66;;;6.65;100.00
29433;BME280;16405;53.964;13.448;2024-02-21T02:13:43;101225.31;;;6.67;100.00
29433;BME280;16405;53.964;13.448;2024-02-21T02:16:09;101215.75;;;6.68;100.00
29433;BME280;16405;53.964;13.448;2024-02-21T02:18:35;101221.75;;;6.71;100.00
29433;BME280;16405;53.964;13.448;2024-02-21T02:21:01;101206.97;;;6.70;100.00
29433;BME280;16405;53.964;13.448;2024-02-21T02:23:42;101202.66;;;6.68;100.00
29433;BME280;16405;53.964;13.448;2024-02-21T02:26:08;101192.97;;;6.71;100.00
29433;BME280;16405;53.964;13.448;2024-02-21T02:28:42;101186.03;;;6.70;100.00
29433;BME280;16405;53.964;13.448;2024-02-21T02:31:07;101175.56;;;6.69;100.00
29433;BME280;16405;53.964;13.448;2024-02-21T02:33:33;101176.41;;;6.71;100.00
29433;BME280;16405;53.964;13.448;2024-02-21T02:35:59;101170.22;;;6.73;100.00
29433;BME280;16405;53.964;13.448;2024-02-21T02:38:32;101164.13;;;6.74;100.00
29433;BME280;16405;53.964;13.448;2024-02-21T02:40:58;101166.59;;;6.81;100.00
29433;BME280;16405;53.964;13.448;2024-02-21T02:43:24;101157.91;;;6.78;100.00
29433;BME280;16405;53.964;13.448;2024-02-21T02:45:50;101147.38;;;6.82;100.00
29433;BME280;16405;53.964;13.448;2024-02-21T02:48:15;101138.56;;;6.84;100.00
29433;BME280;16405;53.964;13.448;2024-02-21T02:50:49;101143.88;;;6.83;100.00
29433;BME280;16405;53.964;13.448;2024-02-21T02:53:15;101135.94;;;6.84;100.00
29433;BME280;16405;53.964;13.448;2024-02-21T02:55:42;101134.25;;;6.83;100.00
29433;BME280;16405;53.964;13.448;2024-02-21T02:58:08;101136.84;;;6.85;100.00
29433;BME280;16405;53.964;13.448;2024-02-21T03:00:41;101130.59;;;6.89;100.00
29433;BME280;16405;53.964;13.448;2024-02-21T03:03:07;101127.09;;;6.90;100.00
29433;BME280;16405;53.964;13.448;2024-02-21T03:05:34;101116.66;;;6.88;100.00
29433;BME280;16405;53.964;13.448;2024-02-21T03:08:00;101114.00;;;6.90;100.00
29433;BME280;16405;53.964;13.448;2024-02-21T03:10:35;101101.81;;;6.89;100.00
29433;BME280;16405;53.964;13.448;2024-02-21T03:13:01;101102.72;;;6.88;100.00
29433;BME280;16405;53.964;13.448;2024-02-21T03:15:27;101103.59;;;6.87;100.00
29433;BME280;16405;53.964;13.448;2024-02-21T03:17:52;101095.75;;;6.87;100.00
29433;BME280;16405;53.964;13.448;2024-02-21T03:20:25;101095.84;;;6.84;100.00
29433;BME280;16405;53.964;13.448;2024-02-21T03:22:51;101089.78;;;6.82;100.00
29433;BME280;16405;53.964;13.448;2024-02-21T03:25:17;101085.44;;;6.81;100.00
29433;BME280;16405;53.964;13.448;2024-02-21T03:27:53;101087.97;;;6.84;100.00
29433;BME280;16405;53.964;13.448;2024-02-21T03:30:18;101084.56;;;6.80;100.00
29433;BME280;16405;53.964;13.448;2024-02-21T03:32:44;101080.25;;;6.79;100.00
29433;BME280;16405;53.964;13.448;2024-02-21T03:35:10;101080.25;;;6.79;100.00
29433;BME280;16405;53.964;13.448;2024-02-21T03:37:36;101078.47;;;6.80;100.00
29433;BME280;16405;53.964;13.448;2024-02-21T03:40:11;101073.25;;;6.80;100.00
29433;BME280;16405;53.964;13.448;2024-02-21T03:42:38;101068.00;;;6.80;100.00
29433;BME280;16405;53.964;13.448;2024-02-21T03:45:04;101059.31;;;6.79;100.00
29433;BME280;16405;53.964;13.448;2024-02-21T03:47:38;101056.66;;;6.81;100.00
29433;BME280;16405;53.964;13.448;2024-02-21T03:50:05;101054.97;;;6.78;100.00
29433;BME280;16405;53.964;13.448;2024-02-21T03:52:38;101047.91;;;6.82;100.00
29433;BME280;16405;53.964;13.448;2024-02-21T03:55:05;101041.88;;;6.78;100.00
29433;BME280;16405;53.964;13.448;2024-02-21T03:57:31;101027.91;;;6.79;100.00
29433;BME280;16405;53.964;13.448;2024-02-21T03:59:57;101029.50;;;6.85;100.00
29433;BME280;16405;53.964;13.448;2024-02-21T04:02:22;101025.06;;;6.87;100.00
29433;BME280;16405;53.964;13.448;2024-02-21T04:04:48;101029.41;;;6.88;100.00
29433;BME280;16405;53.964;13.448;2024-02-21T04:07:23;101021.53;;;6.89;100.00
29433;BME280;16405;53.964;13.448;2024-02-21T04:09:49;101016.38;;;6.86;100.00
29433;BME280;16405;53.964;13.448;2024-02-21T04:12:15;100999.91;;;6.83;100.00
29433;BME280;16405;53.964;13.448;2024-02-21T04:14:50;100998.09;;;6.85;100.00
29433;BME280;16405;53.964;13.448;2024-02-21T04:17:16;100991.94;;;6.86;100.00
29433;BME280;16405;53.964;13.448;2024-02-21T04:19:41;101007.56;;;6.89;100.00
29433;BME280;16405;53.964;13.448;2024-02-21T04:22:15;101011.81;;;6.93;100.00
29433;BME280;16405;53.964;13.448;2024-02-21T04:24:43;101015.38;;;6.90;100.00
29433;BME280;16405;53.964;13.448;2024-02-21T04:27:09;101017.94;;;6.93;100.00
29433;BME280;16405;53.964;13.448;2024-02-21T04:29:35;101031.63;;;7.03;100.00
29433;BME280;16405;53.964;13.448;2024-02-21T04:32:09;101027.38;;;6.99;100.00
29433;BME280;16405;53.964;13.448;2024-02-21T04:34:35;101023.88;;;7.00;100.00
29433;BME280;16405;53.964;13.448;2024-02-21T04:37:01;101009.06;;;6.97;100.00
29433;BME280;16405;53.964;13.448;2024-02-21T04:39:27;101011.75;;;6.96;100.00
29433;BME280;16405;53.964;13.448;2024-02-21T04:41:52;101005.53;;;7.00;100.00
29433;BME280;16405;53.964;13.448;2024-02-21T04:44:26;100995.06;;;7.00;100.00
29433;BME280;16405;53.964;13.448;2024-02-21T04:46:51;101002.09;;;6.98;100.00
29433;BME280;16405;53.964;13.448;2024-02-21T04:49:17;101002.13;;;6.96;100.00
29433;BME280;16405;53.964;13.448;2024-02-21T04:51:44;101005.38;;;7.06;100.00
29433;BME280;16405;53.964;13.448;2024-02-21T04:54:14;100990.66;;;7.02;100.00
29433;BME280;16405;53.964;13.448;2024-02-21T04:56:40;100986.16;;;7.06;100.00
29433;BME280;16405;53.964;13.448;2024-02-21T04:59:06;100993.13;;;7.07;100.00
29433;BME280;16405;53.964;13.448;2024-02-21T05:01:31;100993.16;;;7.05;100.00
29433;BME280;16405;53.964;13.448;2024-02-21T05:03:57;100985.31;;;7.05;100.00
29433;BME280;16405;53.964;13.448;2024-02-21T05:06:23;100987.84;;;7.08;100.00
29433;BME280;16405;53.964;13.448;2024-02-21T05:08:56;100988.75;;;7.07;100.00
29433;BME280;16405;53.964;13.448;2024-02-21T05:11:24;100985.13;;;7.13;100.00
29433;BME280;16405;53.964;13.448;2024-02-21T05:13:50;100986.84;;;7.12;100.00
29433;BME280;16405;53.964;13.448;2024-02-21T05:16:16;100990.25;;;7.16;100.00
29433;BME280;16405;53.964;13.448;2024-02-21T05:18:50;100981.53;;;7.15;100.00
29433;BME280;16405;53.964;13.448;2024-02-21T05:21:16;100985.03;;;7.14;100.00
29433;BME280;16405;53.964;13.448;2024-02-21T05:23:42;100985.88;;;7.16;100.00
29433;BME280;16405;53.964;13.448;2024-02-21T05:26:21;100963.97;;;7.19;100.00
29433;BME280;16405;53.964;13.448;2024-02-21T05:28:47;100977.88;;;7.21;100.00
29433;BME280;16405;53.964;13.448;2024-02-21T05:31:21;100980.44;;;7.23;100.00
29433;BME280;16405;53.964;13.448;2024-02-21T05:33:47;100990.97;;;7.21;100.00
29433;BME280;16405;53.964;13.448;2024-02-21T05:36:13;100968.13;;;7.26;100.00
29433;BME280;16405;53.964;13.448;2024-02-21T05:38:39;100967.41;;;7.21;100.00
29433;BME280;16405;53.964;13.448;2024-02-21T05:41:10;100963.88;;;7.22;100.00
29433;BME280;16405;53.964;13.448;2024-02-21T05:43:36;100966.50;;;7.22;100.00
29433;BME280;16405;53.964;13.448;2024-02-21T05:46:01;100954.19;;;7.26;100.00
29433;BME280;16405;53.964;13.448;2024-02-21T05:48:27;100967.28;;;7.26;100.00
29433;BME280;16405;53.964;13.448;2024-02-21T05:50:53;100965.56;;;7.25;100.00
29433;BME280;16405;53.964;13.448;2024-02-21T05:53:19;100969.03;;;7.25;100.00
29433;BME280;16405;53.964;13.448;2024-02-21T05:55:50;100959.53;;;7.21;100.00
29433;BME280;16405;53.964;13.448;2024-02-21T05:58:16;100963.78;;;7.25;100.00
29433;BME280;16405;53.964;13.448;2024-02-21T06:00:42;100960.31;;;7.25;100.00
29433;BME280;16405;53.964;13.448;2024-02-21T06:03:07;100962.97;;;7.23;100.00
29433;BME280;16405;53.964;13.448;2024-02-21T06:05:46;100962.16;;;7.21;100.00
29433;BME280;16405;53.964;13.448;2024-02-21T06:08:12;100967.41;;;7.21;100.00
29433;BME280;16405;53.964;13.448;2024-02-21T06:10:37;100958.72;;;7.19;100.00
29433;BME280;16405;53.964;13.448;2024-02-21T06:13:03;100960.50;;;7.18;100.00
29433;BME280;16405;53.964;13.448;2024-02-21T06:15:35;100961.47;;;7.14;100.00
29433;BME280;16405;53.964;13.448;2024-02-21T06:18:01;100950.94;;;7.17;100.00
29433;BME280;16405;53.964;13.448;2024-02-21T06:20:26;100949.16;;;7.18;100.00
29433;BME280;16405;53.964;13.448;2024-02-21T06:22:53;100950.94;;;7.17;100.00
29433;BME280;16405;53.964;13.448;2024-02-21T06:25:19;100943.94;;;7.18;100.00
29433;BME280;16405;53.964;13.448;2024-02-21T06:27:54;100942.19;;;7.17;100.00
29433;BME280;16405;53.964;13.448;2024-02-21T06:30:20;100928.31;;;7.15;100.00
29433;BME280;16405;53.964;13.448;2024-02-21T06:32:46;100934.41;;;7.15;100.00
29433;BME280;16405;53.964;13.448;2024-02-21T06:35:12;100927.38;;;7.17;100.00
29433;BME280;16405;53.964;13.448;2024-02-21T06:37:46;100923.00;;;7.16;100.00
29433;BME280;16405;53.964;13.448;2024-02-21T06:40:17;100923.88;;;7.17;100.00
29433;BME280;16405;53.964;13.448;2024-02-21T06:42:49;100936.06;;;7.18;100.00
29433;BME280;16405;53.964;13.448;2024-02-21T06:45:16;100930.84;;;7.18;100.00
29433;BME280;16405;53.964;13.448;2024-02-21T06:47:42;100931.69;;;7.18;100.00
29433;BME280;16405;53.964;13.448;2024-02-21T06:50:15;100927.25;;;7.21;100.00
29433;BME280;16405;53.964;13.448;2024-02-21T06:52:41;100927.19;;;7.24;100.00
29433;BME280;16405;53.964;13.448;2024-02-21T06:55:07;100927.22;;;7.22;100.00
29433;BME280;16405;53.964;13.448;2024-02-21T06:57:33;100928.25;;;7.16;100.00
29433;BME280;16405;53.964;13.448;2024-02-21T06:59:59;100930.69;;;7.23;100.00
29433;BME280;16405;53.964;13.448;2024-02-21T07:02:27;100920.22;;;7.23;100.00
29433;BME280;16405;53.964;13.448;2024-02-21T07:05:01;100915.91;;;7.22;100.00
29433;BME280;16405;53.964;13.448;2024-02-21T07:07:27;100919.34;;;7.24;100.00
29433;BME280;16405;53.964;13.448;2024-02-21T07:09:52;100914.09;;;7.24;100.00
29433;BME280;16405;53.964;13.448;2024-02-21T07:12:24;100917.41;;;7.29;100.00
29433;BME280;16405;53.964;13.448;2024-02-21T07:14:49;100918.22;;;7.31;100.00
29433;BME280;16405;53.964;13.448;2024-02-21T07:17:15;100931.22;;;7.34;100.00
29433;BME280;16405;53.964;13.448;2024-02-21T07:19:41;100934.75;;;7.33;100.00
29433;BME280;16405;53.964;13.448;2024-02-21T07:22:07;100927.63;;;7.38;100.00
29433;BME280;16405;53.964;13.448;2024-02-21T07:24:42;100929.41;;;7.36;100.00
29433;BME280;16405;53.964;13.448;2024-02-21T07:27:08;100932.56;;;7.47;100.00
29433;BME280;16405;53.964;13.448;2024-02-21T07:29:34;100943.84;;;7.49;100.00
29433;BME280;16405;53.964;13.448;2024-02-21T07:31:59;100938.59;;;7.51;100.00
29433;BME280;16405;53.964;13.448;2024-02-21T07:34:34;100937.72;;;7.50;100.00
29433;BME280;16405;53.964;13.448;2024-02-21T07:37:00;100928.94;;;7.51;100.00
29433;BME280;16405;53.964;13.448;2024-02-21T07:39:26;100929.84;;;7.52;100.00
29433;BME280;16405;53.964;13.448;2024-02-21T07:42:03;100928.88;;;7.54;100.00
29433;BME280;16405;53.964;13.448;2024-02-21T07:44:29;100927.16;;;7.53;100.00
29433;BME280;16405;53.964;13.448;2024-02-21T07:47:04;100928.03;;;7.54;100.00
29433;BME280;16405;53.964;13.448;2024-02-21T07:49:32;100932.31;;;7.56;100.00
29433;BME280;16405;53.964;13.448;2024-02-21T07:52:09;100933.06;;;7.60;100.00
29433;BME280;16405;53.964;13.448;2024-02-21T07:54:37;100928.72;;;7.59;100.00
29433;BME280;16405;53.964;13.448;2024-02-21T07:57:04;100927.88;;;7.58;100.00
29433;BME280;16405;53.964;13.448;2024-02-21T07:59:36;100914.84;;;7.55;100.00
29433;BME280;16405;53.964;13.448;2024-02-21T08:02:02;100919.22;;;7.56;100.00
29433;BME280;16405;53.964;13.448;2024-02-21T08:04:28;100915.63;;;7.59;100.00
29433;BME280;16405;53.964;13.448;2024-02-21T08:06:54;100911.22;;;7.59;100.00
29433;BME280;16405;53.964;13.448;2024-02-21T08:09:30;100908.66;;;7.58;100.00
29433;BME280;16405;53.964;13.448;2024-02-21T08:11:56;100915.44;;;7.65;100.00
29433;BME280;16405;53.964;13.448;2024-02-21T08:14:22;100928.34;;;7.71;100.00
29433;BME280;16405;53.964;13.448;2024-02-21T08:16:55;100929.81;;;7.80;100.00
29433;BME280;16405;53.964;13.448;2024-02-21T08:19:22;100926.22;;;7.84;100.00
29433;BME280;16405;53.964;13.448;2024-02-21T08:21:48;100919.16;;;7.86;100.00
29433;BME280;16405;53.964;13.448;2024-02-21T08:24:14;100920.69;;;7.92;100.00
29433;BME280;16405;53.964;13.448;2024-02-21T08:26:46;100927.72;;;7.91;100.00
29433;BME280;16405;53.964;13.448;2024-02-21T08:29:12;100926.75;;;7.94;100.00
29433;BME280;16405;53.964;13.448;2024-02-21T08:31:38;100936.28;;;7.96;100.00
29433;BME280;16405;53.964;13.448;2024-02-21T08:34:04;100931.03;;;7.96;100.00
29433;BME280;16405;53.964;13.448;2024-02-21T08:36:43;100931.81;;;8.00;100.00
29433;BME280;16405;53.964;13.448;2024-02-21T08:39:09;100928.22;;;8.02;100.00
29433;BME280;16405;53.964;13.448;2024-02-21T08:41:35;100925.50;;;8.06;100.00
29433;BME280;16405;53.964;13.448;2024-02-21T08:44:03;100920.97;;;8.11;100.00
29433;BME280;16405;53.964;13.448;2024-02-21T08:46:32;100913.91;;;8.13;100.00
29433;BME280;16405;53.964;13.448;2024-02-21T08:48:57;100918.19;;;8.15;100.00
29433;BME280;16405;53.964;13.448;2024-02-21T08:51:23;100920.75;;;8.17;100.00
29433;BME280;16405;53.964;13.448;2024-02-21T08:53:49;100918.88;;;8.20;100.00
29433;BME280;16405;53.964;13.448;2024-02-21T08:56:15;100924.06;;;8.22;100.00
29433;BME280;16405;53.964;13.448;2024-02-21T08:58:49;100932.72;;;8.26;100.00
29433;BME280;16405;53.964;13.448;2024-02-21T09:01:15;100935.28;;;8.27;100.00
29433;BME280;16405;53.964;13.448;2024-02-21T09:03:42;100933.50;;;8.28;100.00
29433;BME280;16405;53.964;13.448;2024-02-21T09:06:16;100928.25;;;8.28;100.00
29433;BME280;16405;53.964;13.448;2024-02-21T09:08:45;100926.53;;;8.27;100.00
29433;BME280;16405;53.964;13.448;2024-02-21T09:11:11;100930.78;;;8.31;100.00
29433;BME280;16405;53.964;13.448;2024-02-21T09:13:42;100925.53;;;8.31;100.00
29433;BME280;16405;53.964;13.448;2024-02-21T09:16:12;100922.06;;;8.30;100.00
29433;BME280;16405;53.964;13.448;2024-02-21T09:18:38;100924.47;;;8.36;100.00
29433;BME280;16405;53.964;13.448;2024-02-21T09:21:12;100931.19;;;8.45;100.00
29433;BME280;16405;53.964;13.448;2024-02-21T09:23:41;100924.88;;;8.51;100.00
29433;BME280;16405;53.964;13.448;2024-02-21T09:26:08;100932.44;;;8.60;100.00
29433;BME280;16405;53.964;13.448;2024-02-21T09:28:39;100916.22;;;8.72;100.00
29433;BME280;16405;53.964;13.448;2024-02-21T09:31:07;100919.28;;;8.85;100.00
29433;BME280;16405;53.964;13.448;2024-02-21T09:33:34;100922.53;;;8.92;100.00
29433;BME280;16405;53.964;13.448;2024-02-21T09:36:00;100929.50;;;8.93;100.00
29433;BME280;16405;53.964;13.448;2024-02-21T09:38:36;100933.84;;;8.94;100.00
29433;BME280;16405;53.964;13.448;2024-02-21T09:41:18;100932.31;;;8.88;100.00
29433;BME280;16405;53.964;13.448;2024-02-21T09:43:57;100930.75;;;8.82;100.00
29433;BME280;16405;53.964;13.448;2024-02-21T09:47:06;100927.38;;;8.79;100.00
29433;BME280;16405;53.964;13.448;2024-02-21T09:49:36;100932.09;;;8.69;100.00
29433;BME280;16405;53.964;13.448;2024-02-21T09:52:15;100922.50;;;8.68;100.00
29433;BME280;16405;53.964;13.448;2024-02-21T09:54:52;100932.78;;;8.74;100.00
29433;BME280;16405;53.964;13.448;2024-02-21T09:57:43;100922.88;;;8.82;100.00
29433;BME280;16405;53.964;13.448;2024-02-21T10:00:16;100937.78;;;8.82;100.00
29433;BME280;16405;53.964;13.448;2024-02-21T10:02:49;100935.78;;;8.89;100.00
29433;BME280;16405;53.964;13.448;2024-02-21T10:05:20;100936.41;;;8.95;100.00
29433;BME280;16405;53.964;13.448;2024-02-21T10:07:52;100933.75;;;8.97;100.00
29433;BME280;16405;53.964;13.448;2024-02-21T10:10:20;100941.28;;;9.06;100.00
29433;BME280;16405;53.964;13.448;2024-02-21T10:12:57;100937.44;;;9.15;100.00
29433;BME280;16405;53.964;13.448;2024-02-21T10:15:24;100935.44;;;9.21;100.00
29433;BME280;16405;53.964;13.448;2024-02-21T10:17:59;100937.72;;;9.31;100.00
29433;BME280;16405;53.964;13.448;2024-02-21T10:20:26;100934.78;;;9.40;100.00
29433;BME280;16405;53.964;13.448;2024-02-21T10:23:27;100943.22;;;9.48;100.00
29433;BME280;16405;53.964;13.448;2024-02-21T10:26:14;100938.69;;;9.52;100.00
29433;BME280;16405;53.964;13.448;2024-02-21T10:28:45;100941.06;;;9.58;100.00
29433;BME280;16405;53.964;13.448;2024-02-21T10:31:36;100933.56;;;9.71;100.00
29433;BME280;16405;53.964;13.448;2024-02-21T10:34:04;100934.31;;;9.74;100.00
29433;BME280;16405;53.964;13.448;2024-02-21T10:36:31;100951.50;;;9.83;100.00
29433;BME280;16405;53.964;13.448;2024-02-21T10:39:06;100938.56;;;9.99;100.00
29433;BME280;16405;53.964;13.448;2024-02-21T10:41:36;100942.47;;;10.11;100.00
29433;BME280;16405;53.964;13.448;2024-02-21T10:44:40;100941.22;;;10.19;100.00
29433;BME280;16405;53.964;13.448;2024-02-21T10:47:18;100940.13;;;10.25;100.00
29433;BME280;16405;53.964;13.448;2024-02-21T10:50:03;100934.59;;;10.33;100.00
29433;BME280;16405;53.964;13.448;2024-02-21T10:53:17;100923.44;;;10.46;100.00
29433;BME280;16405;53.964;13.448;2024-02-21T10:59:19;100911.81;;;10.32;100.00
29433;BME280;16405;53.964;13.448;2024-02-21T11:01:46;100935.19;;;10.39;100.00
29433;BME280;16405;53.964;13.448;2024-02-21T11:04:27;100918.63;;;10.15;98.57
29433;BME280;16405;53.964;13.448;2024-02-21T11:07:10;100927.25;;;9.97;93.62
29433;BME280;16405;53.964;13.448;2024-02-21T11:10:04;100921.97;;;9.76;94.08
29433;BME280;16405;53.964;13.448;2024-02-21T11:12:42;100919.66;;;9.67;94.60
29433;BME280;16405;53.964;13.448;2024-02-21T11:15:09;100916.63;;;9.56;94.62
29433;BME280;16405;53.964;13.448;2024-02-21T11:17:42;100912.16;;;9.58;95.79
29433;BME280;16405;53.964;13.448;2024-02-21T11:20:12;100897.19;;;9.60;97.07
29433;BME280;16405;53.964;13.448;2024-02-21T11:22:47;100907.94;;;9.76;96.60
29433;BME280;16405;53.964;13.448;2024-02-21T11:25:29;100912.28;;;9.77;96.14
29433;BME280;16405;53.964;13.448;2024-02-21T11:28:24;100909.28;;;9.86;93.09
29433;BME280;16405;53.964;13.448;2024-02-21T11:31:08;100901.72;;;9.78;89.44
29433;BME280;16405;53.964;13.448;2024-02-21T11:33:35;100910.50;;;9.77;88.59
29433;BME280;16405;53.964;13.448;2024-02-21T11:36:23;100918.44;;;9.76;87.80
29433;BME280;16405;53.964;13.448;2024-02-21T11:38:52;100904.81;;;9.44;86.67
29433;BME280;16405;53.964;13.448;2024-02-21T11:41:30;100904.03;;;9.42;85.15
29433;BME280;16405;53.964;13.448;2024-02-21T11:43:58;100897.09;;;9.39;85.50
29433;BME280;16405;53.964;13.448;2024-02-21T11:46:33;100885.16;;;9.31;85.94
29433;BME280;16405;53.964;13.448;2024-02-21T11:49:10;100888.31;;;9.40;86.56
29433;BME280;16405;53.964;13.448;2024-02-21T11:52:01;100885.81;;;9.37;87.39
29433;BME280;16405;53.964;13.448;2024-02-21T11:54:39;100874.59;;;9.32;85.58
29433;BME280;16405;53.964;13.448;2024-02-21T11:57:31;100871.78;;;9.37;84.69
29433;BME280;16405;53.964;13.448;2024-02-21T12:00:09;100883.06;;;9.40;84.10
29433;BME280;16405;53.964;13.448;2024-02-21T12:02:48;100866.53;;;9.37;83.79
29433;BME280;16405;53.964;13.448;2024-02-21T12:05:19;100874.31;;;9.40;84.14
29433;BME280;16405;53.964;13.448;2024-02-21T12:07:54;100867.09;;;9.45;84.38
29433;BME280;16405;53.964;13.448;2024-02-21T12:10:23;100865.81;;;9.55;84.00
29433;BME280;16405;53.964;13.448;2024-02-21T12:13:14;100858.84;;;9.54;83.74
29433;BME280;16405;53.964;13.448;2024-02-21T12:15:47;100866.53;;;9.59;84.11
29433;BME280;16405;53.964;13.448;2024-02-21T12:18:16;100865.94;;;9.52;84.23
29433;BME280;16405;53.964;13.448;2024-02-21T12:20:42;100859.97;;;9.49;84.50
29433;BME280;16405;53.964;13.448;2024-02-21T12:23:10;100858.97;;;9.51;83.83
29433;BME280;16405;53.964;13.448;2024-02-21T12:25:46;100851.69;;;9.58;84.67
29433;BME280;16405;53.964;13.448;2024-02-21T12:28:11;100848.25;;;9.78;85.38
29433;BME280;16405;53.964;13.448;2024-02-21T12:30:37;100835.13;;;9.98;85.26
29433;BME280;16405;53.964;13.448;2024-02-21T12:33:13;100842.09;;;10.20;84.82
29433;BME280;16405;53.964;13.448;2024-02-21T12:35:42;100842.25;;;10.37;84.59
29433;BME280;16405;53.964;13.448;2024-02-21T12:38:08;100839.34;;;10.43;82.95
29433;BME280;16405;53.964;13.448;2024-02-21T12:40:41;100829.47;;;10.49;83.39
29433;BME280;16405;53.964;13.448;2024-02-21T12:43:07;100831.56;;;10.61;83.34
29433;BME280;16405;53.964;13.448;2024-02-21T12:45:33;100825.22;;;10.65;82.24
29433;BME280;16405;53.964;13.448;2024-02-21T12:47:59;100827.00;;;10.64;81.80
29433;BME280;16405;53.964;13.448;2024-02-21T12:50:36;100823.50;;;10.64;81.65
29433;BME280;16405;53.964;13.448;2024-02-21T12:53:01;100822.91;;;10.78;82.45
29433;BME280;16405;53.964;13.448;2024-02-21T12:55:28;100822.75;;;10.81;82.37
29433;BME280;16405;53.964;13.448;2024-02-21T12:58:03;100815.63;;;10.83;81.78
29433;BME280;16405;53.964;13.448;2024-02-21T13:00:32;100810.00;;;10.91;82.16